This is the latest recevied weather packets stored in our database for station/object KE8WMS. If no packets are shown the sender has not sent any weather packets the latest 10 day(s).
| Time | Temp. | Humidity | Pressure | Rain* | Wind** | Luminosity | Snow |
|---|---|---|---|---|---|---|---|
| 1778266950 | 16.67° C | 67% | 1007.2 hPa | 0 mm | - | 808 W/m² | - |
| 1778266647 | 15.56° C | 68% | 1007.2 hPa | 0 mm | - | 367 W/m² | - |
| 1778266344 | 16.11° C | 66% | 1007.4 hPa | 0 mm | - | 426 W/m² | - |
| 1778266041 | 15° C | 73% | 1007.2 hPa | 0 mm | - | 562 W/m² | - |
| 1778265738 | 13.89° C | 75% | 1007.3 hPa | 0 mm | - | 300 W/m² | - |
| 1778265435 | 13.89° C | 75% | 1007.2 hPa | 0 mm | - | 345 W/m² | - |
| 1778265131 | 13.33° C | 78% | 1007.2 hPa | 0 mm | - | 244 W/m² | - |
| 1778264827 | 12.78° C | 79% | 1007.6 hPa | 0 mm | - | 226 W/m² | - |
| 1778264524 | 12.78° C | 79% | 1007.6 hPa | 0 mm | - | 281 W/m² | - |
| 1778264220 | 12.78° C | 80% | 1007.2 hPa | 0 mm | - | 116 W/m² | - |
| 1778263917 | 12.78° C | 81% | 1007.5 hPa | 0 mm | - | 174 W/m² | - |
| 1778263614 | 11.67° C | 81% | 1007.5 hPa | 0 mm | - | 802 W/m² | - |
| 1778263311 | 12.78° C | 80% | 1007.8 hPa | 0 mm | - | 78 W/m² | - |
| 1778263008 | 12.78° C | 79% | 1007.8 hPa | 0 mm | - | 148 W/m² | - |
| 1778262704 | 12.78° C | 78% | 1008.1 hPa | 0 mm | - | 252 W/m² | - |
| 1778262402 | 12.78° C | 79% | 1008 hPa | 0 mm | - | 253 W/m² | - |
| 1778262098 | 13.33° C | 78% | 1008 hPa | 0 mm | - | 221 W/m² | - |
| 1778261795 | 12.78° C | 79% | 1008 hPa | 0 mm | - | 270 W/m² | - |
| 1778261491 | 12.78° C | 80% | 1008 hPa | 0 mm | - | 206 W/m² | - |
| 1778261189 | 12.78° C | 79% | 1008.3 hPa | 0 mm | - | 210 W/m² | - |
| 1778260885 | 12.78° C | 78% | 1008.3 hPa | 0 mm | - | 112 W/m² | - |
| 1778260582 | 13.33° C | 78% | 1008.2 hPa | 0 mm | - | 211 W/m² | - |
| 1778260278 | 13.33° C | 77% | 1007.8 hPa | 0 mm | - | 307 W/m² | - |
| 1778259975 | 14.44° C | 75% | 1008 hPa | 0 mm | - | 307 W/m² | - |
| 1778259673 | 15° C | 74% | 1008.4 hPa | 0 mm | - | 549 W/m² | - |
* Rain latest hour (hover to see other rain measurements)
** Current wind speed in m/s (hover to see current wind gust speed)